Venancio Aires, Brazil
Current Conditions -  °F | °C
As of 11:00 AM on Saturday 25 Oct 2014 (Local Time) from SBPA Reporting Station
Scattered Clouds Scattered Clouds  
Wind Chill: 75°   Ceiling: Unl
Heat Index: 75°   Visibility: 5mi
Dew Point: 64°   Wind: 3mph
Humidity: 69%   Direction: NA
Pressure: 29.94"   Gusts: NA
Location:  29.61°S, 52.19°W
Report Text: SBPA 251300Z VRB03KT 8000 SCT020 24/18 Q1014
Loading
Personal Weather Stations






























Interactive Weather Map
Tropical Storm Tracking
New forecast layout! Learn more

10-Day Weather Forecast

Advertisements
Track Severe Weather on mobile